Terminal Aerodrome Forecast
Issued by NWS

Home | Current Version | Previous Version | Text Only | Print | Product List | Glossary On
Versions: 1 2 3 4 5 6 7 8 9 10 11 12 13 14 15 16 17 18 19 20 21 22 23 24 25 26 27 28
000
FTPA31 PHFO 031100
TAFMDY
TAF
PMDY 031129Z 0312/0412 33009KT P6SM FEW025 SCT040
     FM031800 28010KT P6SM SCT025 BKN050
     FM041000 30011KT P6SM VCSH SCT020 OVC060
      AMD LTD TO CLD AND WIND=

USA.gov is the U.S. government's official web portal to all federal, state and local government web resources and services.